Austin, TX

11:25 PM CDT on October 01, 2014 (GMT -0500)
Austin Market District | Change Station
CLOSE
Current Station
Personal Weather Station
Location: Austin, TX
Elevation: 469 ft
Nearby Weather Stations

Elev 469 ft 30.27 °N, 97.75 °W | Updated 3 minutes ago

Clear
Clear
82.2 °F
Feels Like 88 °F
N
-
Wind Variable Wind from North

Today
High -- | Low -- °F
--% Chance of Precip.
Yesterday
High -- | Low -- °F
Precip. -- in
7:24 AM 7:16 PM
First Quarter, 54% visible
Pressure 29.80 in
Visibility 10.0 miles
Clouds Clear
Heat Index 88 °F
Dew Point 71 °F
Humidity 73%
Rainfall -999.00 in
Snow Depth Not available.
UV 0 out of 12
Pollen 7.40 out of 12
Ozone Good
PM2.5 Good
Flu Activity Not available.
METAR KATT 020351Z AUTO 17007KT 10SM CLR 27/21 A2984 RMK AO2 SLP091 T02720211

More Conditions Fewer Conditions

Pressure 29.80 in
Visibility 10.0 miles
Clouds Clear
Heat Index 88 °F
Dew Point 71 °F
Humidity 73%
Rainfall -999.00 in
Snow Depth Not available.
UV 0 out of 12
Pollen 7.40 out of 12
Ozone Good
PM2.5 Good
Flu Activity Not available.
METAR KATT 020351Z AUTO 17007KT 10SM CLR 27/21 A2984 RMK AO2 SLP091 T02720211

More Conditions Fewer Conditions

10-Day Weather Forecast

Almanac

Astronomy

Oct. 01, 2014 Rise Set
Actual Time 7:24 AM CDT 7:16 PM CDT
Civil Twilight 7:00 AM CDT 7:40 PM CDT
Nautical Twilight 6:32 AM CDT 8:07 PM CDT
Astronomical Twilight 6:04 AM CDT 8:35 PM CDT
Moon 2:08 PM CDT (10/1) 12:07 AM CDT (10/1)
Length of Visible Light 12h 39m
Length of Day
11h 51m
Tomorrow will be 1m 49s shorter.
First Quarter, 54% of the Moon is Illuminated
Oct 2
First Quarter
Oct 8
Full
Oct 15
Last Quarter
Oct 23
New
Oct 30
First Quarter

Yesterday's Extremes

State Highs State Lows

Community

WunderPhotos

Upload Photos

1,758,186 photos uploaded!

Nearby

Air Quality

  Air Quality AQ Index Pollutant
Yesterday Moderate
OZONE
Yesterday Good
PM2.5
Current Good
PM2.5
Current Good
OZONE
Wednesday Good
OZONE
Wednesday Good
PM10
Thursday Good
OZONE
Thursday Good
PM10
Friday Good
OZONE
Friday Good
PM10
Saturday Good
OZONE
Saturday Good
PM10

Snow Depth

Station Depth Elevation
No new snow has been reported.

Earthquake Activity

City Distance Mag. Time & Date
No recent earthquake activity has been reported nearby.
Minimum magnitude displayed is 2.5.

Coastal Water Temperatures

Place Temperature
No Stations Reporting

Nearby Weather Stations